Terminal Aerodrome Forecast
Issued by NWS Melbourne, FL

Home | Current Version | Previous Version | Text Only | Print | Product List | Glossary On
Versions: 1 2 3 4 5 6 7 8 9 10 11 12 13 14 15 16 17 18 19 20 21 22 23 24 25 26 27
774
FTUS42 KMLB 041747
TAFVRB
TAF
KVRB 041747Z 0418/0518 26007KT P6SM -RA SCT050 BKN080 OVC120
      TEMPO 0418/0422 5SM TSRA BKN030CB OVC050
     FM050500 26012KT P6SM BKN030 OVC120
     FM051000 30012KT P6SM SCT040=

USA.gov is the U.S. government's official web portal to all federal, state and local government web resources and services.